createdAt,value
2023-04-06T00:00:25.625Z,-1.56
2023-04-06T00:02:25.709Z,-1.28
2023-04-06T00:04:25.585Z,-1.28
2023-04-06T00:05:25.594Z,-1.44
2023-04-06T00:06:25.632Z,-1.67
2023-04-06T00:08:25.586Z,-1.83
2023-04-06T00:10:25.595Z,-2.17
2023-04-06T00:11:25.621Z,-2.44
2023-04-06T00:13:25.601Z,-2.28
2023-04-06T00:14:25.604Z,-2.17
2023-04-06T00:16:26.543Z,-2.17
2023-04-06T00:17:25.603Z,-2.44
2023-04-06T00:18:25.613Z,-2.17
2023-04-06T00:20:25.607Z,-2.28
2023-04-06T00:21:25.649Z,-2.61
2023-04-06T00:22:25.633Z,-2.28
2023-04-06T00:24:25.611Z,-2.61
2023-04-06T00:25:25.609Z,-2.44
2023-04-06T00:26:25.621Z,-2.44
2023-04-06T00:27:25.621Z,-2.89
2023-04-06T00:29:25.619Z,-2.17
2023-04-06T00:30:25.633Z,-2
2023-04-06T00:31:25.793Z,-1.67
2023-04-06T00:33:25.617Z,-1.67
2023-04-06T00:34:26.622Z,-1.67
2023-04-06T00:35:25.619Z,-2.28
2023-04-06T00:36:25.629Z,-2.17
2023-04-06T00:38:25.639Z,-2.44
2023-04-06T00:40:25.642Z,-2.61
2023-04-06T00:42:25.618Z,-2.28
2023-04-06T00:43:25.625Z,-2.61
2023-04-06T00:44:25.631Z,-2.61
2023-04-06T00:45:25.637Z,-3.06
2023-04-06T00:47:26.664Z,-2.17
2023-04-06T00:49:25.620Z,-2.28
2023-04-06T00:50:25.641Z,-2.28
2023-04-06T00:51:25.623Z,-2.44
2023-04-06T00:52:25.656Z,-1.83
2023-04-06T00:54:25.657Z,-2.17
2023-04-06T00:55:25.644Z,-2.44
2023-04-06T00:56:25.640Z,-2.61
2023-04-06T00:57:25.639Z,-2.44
2023-04-06T00:58:25.673Z,-2.72
2023-04-06T01:00:25.652Z,-2.89
2023-04-06T01:01:25.670Z,-2.72
2023-04-06T01:02:25.658Z,-2.72
2023-04-06T01:03:25.652Z,-3.06
2023-04-06T01:05:25.715Z,-2.61
2023-04-06T01:06:25.666Z,-2.44
2023-04-06T01:07:25.659Z,-2.28
2023-04-06T01:08:25.646Z,-2.61
2023-04-06T01:09:25.656Z,-2.89
2023-04-06T01:10:25.930Z,-2.61
2023-04-06T01:12:25.673Z,-2.61
2023-04-06T01:14:25.664Z,-2.61
2023-04-06T01:15:25.662Z,-2.28
2023-04-06T01:16:25.853Z,-2.44
2023-04-06T01:18:25.682Z,-2.28
2023-04-06T01:19:25.668Z,-2.44
2023-04-06T01:20:25.677Z,-2.17
2023-04-06T01:21:25.705Z,-2.44
2023-04-06T01:22:25.688Z,-2.17
2023-04-06T01:23:25.676Z,-2.28
2023-04-06T01:24:25.673Z,-2
2023-04-06T01:25:25.705Z,-2
2023-04-06T01:26:25.716Z,-2
2023-04-06T01:27:25.709Z,-1.67
2023-04-06T01:29:25.691Z,-2
2023-04-06T01:30:25.704Z,-2
2023-04-06T01:31:25.744Z,-1.83
2023-04-06T01:32:25.694Z,-1.67
2023-04-06T01:33:25.700Z,-1.83
2023-04-06T01:35:25.719Z,-1.67
2023-04-06T01:36:25.707Z,-1.67
2023-04-06T01:37:25.690Z,-2.17
2023-04-06T01:38:25.703Z,-2.17
2023-04-06T01:40:25.697Z,-1.67
2023-04-06T01:41:25.709Z,-1.83
2023-04-06T01:42:25.740Z,-1.83
2023-04-06T01:43:25.696Z,-1.83
2023-04-06T01:44:25.696Z,-1.67
2023-04-06T01:46:25.865Z,-1.83
2023-04-06T01:48:25.710Z,-2
2023-04-06T01:49:25.707Z,-2.17
2023-04-06T01:50:25.717Z,-2.28
2023-04-06T01:51:25.706Z,-2.17
2023-04-06T01:52:25.708Z,-2.17
2023-04-06T01:53:25.720Z,-2.44
2023-04-06T01:54:25.712Z,-2.28
2023-04-06T01:55:25.714Z,-2.44
2023-04-06T01:56:25.732Z,-2.61
2023-04-06T01:57:25.719Z,-2.72
2023-04-06T01:58:25.747Z,-2.61
2023-04-06T02:00:25.720Z,-2.89
2023-04-06T02:01:25.758Z,-2.61
2023-04-06T02:02:25.898Z,-2.72
2023-04-06T02:03:25.728Z,-2.89
2023-04-06T02:04:25.730Z,-2.61
2023-04-06T02:05:25.734Z,-2.72
2023-04-06T02:06:25.735Z,-2.89
2023-04-06T02:08:25.966Z,-2.89
2023-04-06T02:09:25.719Z,-3.06
2023-04-06T02:10:25.724Z,-3.06
2023-04-06T02:11:25.728Z,-2.89
2023-04-06T02:12:25.750Z,-3.28
2023-04-06T02:13:25.758Z,-3.06
2023-04-06T02:14:25.770Z,-2.61
2023-04-06T02:16:25.754Z,-2.61
2023-04-06T02:18:25.730Z,-2.44
2023-04-06T02:19:25.754Z,-2.44
2023-04-06T02:20:25.738Z,-2.61
2023-04-06T02:21:25.746Z,-2.61
2023-04-06T02:22:25.738Z,-2.44
2023-04-06T02:23:25.747Z,-2.72
2023-04-06T02:25:25.737Z,-2.44
2023-04-06T02:26:25.752Z,-2.28
2023-04-06T02:27:25.974Z,-2.61
2023-04-06T02:28:25.746Z,-2.17
2023-04-06T02:29:25.735Z,-2.28
2023-04-06T02:30:25.766Z,-2.28
2023-04-06T02:32:25.779Z,-2.17
2023-04-06T02:34:25.762Z,-2.61
2023-04-06T02:35:25.760Z,-2.72
2023-04-06T02:37:25.744Z,-2.28
2023-04-06T02:38:25.747Z,-2.61
2023-04-06T02:39:25.746Z,-2.61
2023-04-06T02:40:25.764Z,-2.61
2023-04-06T02:42:26.216Z,-2.89
2023-04-06T02:43:25.760Z,-3.17
2023-04-06T02:44:25.748Z,-3.61
2023-04-06T02:45:25.767Z,-3.44
2023-04-06T02:46:25.826Z,-3.06
2023-04-06T02:47:25.770Z,-3.28
2023-04-06T02:48:25.761Z,-3.44
2023-04-06T02:49:25.764Z,-3.44
2023-04-06T02:50:25.992Z,-3.44
2023-04-06T02:52:25.788Z,-3.44
2023-04-06T02:54:25.764Z,-3.17
2023-04-06T02:55:25.762Z,-3.28
2023-04-06T02:56:25.800Z,-3.06
2023-04-06T02:57:25.769Z,-2.72
2023-04-06T02:58:25.772Z,-2.61
2023-04-06T02:59:25.818Z,-2.61
2023-04-06T03:00:25.782Z,-2.44
2023-04-06T03:01:25.790Z,-2.28
2023-04-06T03:02:25.871Z,-2.17
2023-04-06T03:03:25.813Z,-2.17
2023-04-06T03:04:25.810Z,-2.28
2023-04-06T03:06:25.791Z,-2.61
2023-04-06T03:07:25.808Z,-2.61
2023-04-06T03:08:25.780Z,-2.61
2023-04-06T03:09:25.771Z,-2.72
2023-04-06T03:10:25.776Z,-2.61
2023-04-06T03:11:25.786Z,-2.89
2023-04-06T03:13:25.800Z,-2.61
2023-04-06T03:14:26.015Z,-2.89
2023-04-06T03:15:25.777Z,-2.72
2023-04-06T03:16:25.874Z,-2.89
2023-04-06T03:17:25.810Z,-2.72
2023-04-06T03:18:25.800Z,-3.06
2023-04-06T03:20:25.799Z,-2.61
2023-04-06T03:21:25.770Z,-3.06
2023-04-06T03:22:25.797Z,-2.72
2023-04-06T03:23:25.781Z,-2.89
2023-04-06T03:24:26.019Z,-2.72
2023-04-06T03:26:25.784Z,-2.89
2023-04-06T03:29:25.791Z,-2.89
2023-04-06T03:31:25.856Z,-2.89
2023-04-06T03:32:25.786Z,-2.89
2023-04-06T03:33:25.788Z,-3.06
2023-04-06T03:34:25.820Z,-2.89
2023-04-06T03:36:25.786Z,-3.28
2023-04-06T03:37:25.809Z,-3.17
2023-04-06T03:39:25.788Z,-3.17
2023-04-06T03:40:25.800Z,-2.72
2023-04-06T03:42:25.794Z,-3.06
2023-04-06T03:44:26.034Z,-3.44
2023-04-06T03:45:25.801Z,-3.28
2023-04-06T03:46:25.858Z,-3.44
2023-04-06T03:48:25.805Z,-3.44
2023-04-06T03:50:25.814Z,-3.28
2023-04-06T03:52:25.808Z,-3.06
2023-04-06T03:53:25.788Z,-3.17
2023-04-06T03:54:25.805Z,-3.06
2023-04-06T03:56:25.804Z,-3.28
2023-04-06T03:57:25.801Z,-3.06
2023-04-06T03:58:25.796Z,-3.17
2023-04-06T03:59:25.833Z,-3.28
2023-04-06T04:01:25.819Z,-3.61
2023-04-06T04:02:25.923Z,-3.44
2023-04-06T04:03:25.886Z,-3.61
2023-04-06T04:04:25.800Z,-3.61
2023-04-06T04:05:25.839Z,-3.72
2023-04-06T04:06:25.922Z,-3.89
2023-04-06T04:08:25.849Z,-4.06
2023-04-06T04:09:27.263Z,-4.33
2023-04-06T04:11:25.795Z,-3.72
2023-04-06T04:12:25.810Z,-3.61
2023-04-06T04:13:25.835Z,-3.44
2023-04-06T04:14:25.801Z,-3.61
2023-04-06T04:15:25.810Z,-3.61
2023-04-06T04:17:25.835Z,-3.06
2023-04-06T04:18:25.820Z,-3.28
2023-04-06T04:19:25.798Z,-3.06
2023-04-06T04:20:25.822Z,-3.28
2023-04-06T04:21:25.804Z,-3.28
2023-04-06T04:22:25.830Z,-3.61
2023-04-06T04:23:25.793Z,-3.28
2023-04-06T04:24:25.817Z,-3.17
2023-04-06T04:25:25.806Z,-3.06
2023-04-06T04:26:25.816Z,-3.06
2023-04-06T04:27:25.836Z,-2.72
2023-04-06T04:28:25.852Z,-3.06
2023-04-06T04:29:25.817Z,-3.06
2023-04-06T04:30:25.815Z,-3.17
2023-04-06T04:31:25.840Z,-3.06
2023-04-06T04:32:25.847Z,-3.28
2023-04-06T04:34:25.837Z,-3.28
2023-04-06T04:35:25.873Z,-3.06
2023-04-06T04:36:25.845Z,-3.17
2023-04-06T04:37:25.857Z,-3.06
2023-04-06T04:38:25.888Z,-2.89
2023-04-06T04:40:25.856Z,-3.06
2023-04-06T04:41:25.854Z,-3.06
2023-04-06T04:42:26.883Z,-3.06
2023-04-06T04:43:25.850Z,-3.44
2023-04-06T04:44:26.878Z,-3.72
2023-04-06T04:45:25.860Z,-3.72
2023-04-06T04:46:26.176Z,-3.89
2023-04-06T04:47:27.035Z,-3.72
2023-04-06T04:48:26.044Z,-3.72
2023-04-06T04:49:26.047Z,-3.61
2023-04-06T04:51:26.030Z,-3.61
2023-04-06T04:52:26.387Z,-3.44
2023-04-06T04:53:25.973Z,-3.28
2023-04-06T04:54:27.372Z,-3.44
2023-04-06T04:55:33.210Z,-3.61
2023-04-06T04:56:27.365Z,-3.44
2023-04-06T04:57:27.031Z,-3.61
2023-04-06T04:58:26.008Z,-3.61
2023-04-06T04:59:27.062Z,-3.17
2023-04-06T05:00:25.986Z,-3.28
2023-04-06T05:01:26.025Z,-3.61
2023-04-06T05:02:26.082Z,-3.28
2023-04-06T05:03:26.169Z,-3.44
2023-04-06T05:04:26.040Z,-3.61
2023-04-06T05:05:25.994Z,-3.61
2023-04-06T05:07:26.036Z,-3.72
2023-04-06T05:08:27.055Z,-3.44
2023-04-06T05:09:26.053Z,-4.06
2023-04-06T05:10:26.077Z,-3.89
2023-04-06T05:12:25.896Z,-4.22
2023-04-06T05:13:25.879Z,-4.06
2023-04-06T05:14:26.838Z,-4.33
2023-04-06T05:15:25.889Z,-3.89
2023-04-06T05:16:25.982Z,-3.72
2023-04-06T05:17:25.931Z,-3.44
2023-04-06T05:18:25.901Z,-3.28
2023-04-06T05:20:25.908Z,-3.17
2023-04-06T05:21:27.108Z,-3.17
2023-04-06T05:22:25.906Z,-3.28
2023-04-06T05:23:25.911Z,-3.28
2023-04-06T05:24:25.900Z,-3.06
2023-04-06T05:26:25.954Z,-3.06
2023-04-06T05:28:25.921Z,-3.06
2023-04-06T05:29:25.913Z,-3.28
2023-04-06T05:30:25.903Z,-3.44
2023-04-06T05:31:25.934Z,-2.72
2023-04-06T05:33:25.941Z,-2.17
2023-04-06T05:35:25.950Z,-2.28
2023-04-06T05:36:25.920Z,-2.44
2023-04-06T05:37:25.904Z,-2.44
2023-04-06T05:38:25.932Z,-2.89
2023-04-06T05:39:25.903Z,-2.28
2023-04-06T05:40:25.912Z,-2.72
2023-04-06T05:41:25.898Z,-2.28
2023-04-06T05:42:25.933Z,-2
2023-04-06T05:44:25.905Z,-1.67
2023-04-06T05:45:25.906Z,-1.83
2023-04-06T05:46:26.015Z,-2
2023-04-06T05:48:25.906Z,-2
2023-04-06T05:49:25.907Z,-2
2023-04-06T05:50:25.934Z,-1.83
2023-04-06T05:52:25.918Z,-1.83
2023-04-06T05:53:25.919Z,-2
2023-04-06T05:54:25.900Z,-1.83
2023-04-06T05:55:25.902Z,-2.28
2023-04-06T05:56:25.908Z,-2.17
2023-04-06T05:57:25.912Z,-2.17
2023-04-06T05:58:25.939Z,-1.83
2023-04-06T06:00:25.906Z,-1.56
2023-04-06T06:01:25.905Z,-1.83
2023-04-06T06:02:25.956Z,-1.56
2023-04-06T06:03:25.907Z,-0.56
2023-04-06T06:04:25.912Z,0.28
2023-04-06T06:05:26.021Z,1.06
2023-04-06T06:06:25.912Z,1.61
2023-04-06T06:08:25.925Z,2.33
2023-04-06T06:09:25.921Z,2.5
2023-04-06T06:11:25.907Z,2.89
2023-04-06T06:12:25.911Z,2.78
2023-04-06T06:13:25.936Z,2.17
2023-04-06T06:14:25.935Z,2.06
2023-04-06T06:15:25.914Z,1.89
2023-04-06T06:16:26.006Z,2.5
2023-04-06T06:17:25.926Z,2.78
2023-04-06T06:18:25.922Z,3.06
2023-04-06T06:19:25.930Z,3.22
2023-04-06T06:20:25.917Z,3.06
2023-04-06T06:21:25.920Z,2.5
2023-04-06T06:22:25.914Z,2.33
2023-04-06T06:23:25.933Z,2.06
2023-04-06T06:24:25.930Z,3.5
2023-04-06T06:26:25.923Z,2.78
2023-04-06T06:27:25.945Z,2.61
2023-04-06T06:28:25.929Z,2.33
2023-04-06T06:30:25.969Z,2.22
2023-04-06T06:31:25.994Z,2.5
2023-04-06T06:32:25.960Z,2.61
2023-04-06T06:33:25.926Z,3.22
2023-04-06T06:34:25.939Z,3.06
2023-04-06T06:36:25.930Z,5.22
2023-04-06T06:37:26.374Z,6.17
2023-04-06T06:38:25.958Z,5.61
2023-04-06T06:39:25.962Z,4.78
2023-04-06T06:41:25.941Z,3.61
2023-04-06T06:43:25.961Z,4.17
2023-04-06T06:44:25.937Z,6.17
2023-04-06T06:46:26.267Z,6.06
2023-04-06T06:48:25.966Z,5.89
2023-04-06T06:50:26.030Z,5.22
2023-04-06T06:52:25.960Z,5.06
2023-04-06T06:54:25.968Z,5.5
2023-04-06T06:55:25.939Z,4.94
2023-04-06T06:56:25.945Z,4.83
2023-04-06T06:57:25.944Z,5.39
2023-04-06T06:59:25.995Z,5.06
2023-04-06T07:00:25.975Z,5.89
2023-04-06T07:01:25.990Z,6.94
2023-04-06T07:02:26.074Z,8.61
2023-04-06T07:04:26.010Z,7.5
2023-04-06T07:05:28.469Z,7.22
2023-04-06T07:06:25.975Z,7.5
2023-04-06T07:08:25.943Z,7.33
2023-04-06T07:09:25.957Z,7.06
2023-04-06T07:11:25.961Z,6.06
2023-04-06T07:12:25.959Z,6.94
2023-04-06T07:13:25.939Z,7.06
2023-04-06T07:14:25.990Z,6.17
2023-04-06T07:15:25.970Z,6.17
2023-04-06T07:16:25.984Z,7.06
2023-04-06T07:17:25.978Z,6.61
2023-04-06T07:18:25.977Z,5.61
2023-04-06T07:19:25.953Z,4.5
2023-04-06T07:20:26.041Z,3.61
2023-04-06T07:21:25.955Z,3.39
2023-04-06T07:22:25.976Z,3.44
2023-04-06T07:24:25.996Z,4
2023-04-06T07:26:25.994Z,3.83
2023-04-06T07:27:25.959Z,4.17
2023-04-06T07:28:25.967Z,3.56
2023-04-06T07:29:25.990Z,3.56
2023-04-06T07:31:25.972Z,3.83
2023-04-06T07:33:25.998Z,3.56
2023-04-06T07:34:26.013Z,3.72
2023-04-06T07:36:25.970Z,4
2023-04-06T07:37:25.968Z,3.44
2023-04-06T07:38:25.973Z,2.72
2023-04-06T07:39:25.963Z,2.89
2023-04-06T07:40:25.972Z,3
2023-04-06T07:41:25.974Z,2.61
2023-04-06T07:42:25.996Z,2.72
2023-04-06T07:43:25.965Z,3.44
2023-04-06T07:44:25.974Z,3.83
2023-04-06T07:45:25.988Z,3.44
2023-04-06T07:46:25.991Z,3.33
2023-04-06T07:47:25.989Z,3.17
2023-04-06T07:48:25.970Z,3.33
2023-04-06T07:49:25.981Z,3.33
2023-04-06T07:50:26.035Z,3.72
2023-04-06T07:51:25.977Z,3.33
2023-04-06T07:52:25.979Z,3
2023-04-06T07:53:25.980Z,3
2023-04-06T07:54:25.987Z,3.44
2023-04-06T07:56:26.008Z,4.17
2023-04-06T07:57:25.984Z,3.72
2023-04-06T07:58:25.978Z,3.72
2023-04-06T07:59:26.017Z,3.83
2023-04-06T08:00:25.998Z,3.83
2023-04-06T08:01:25.994Z,4.17
2023-04-06T08:02:26.101Z,3.83
2023-04-06T08:04:26.058Z,4.72
2023-04-06T08:05:25.990Z,5.17
2023-04-06T08:06:26.012Z,4.17
2023-04-06T08:08:25.994Z,4.17
2023-04-06T08:09:25.987Z,4.17
2023-04-06T08:11:25.997Z,4.44
2023-04-06T08:12:26.070Z,5.17
2023-04-06T08:14:26.000Z,5.61
2023-04-06T08:16:25.998Z,6
2023-04-06T08:17:26.033Z,5.61
2023-04-06T08:18:25.983Z,5.83
2023-04-06T08:19:26.009Z,6.83
2023-04-06T08:20:26.010Z,7.61
2023-04-06T08:21:26.004Z,7.61
2023-04-06T08:22:26.034Z,7.61
2023-04-06T08:23:25.990Z,6.83
2023-04-06T08:24:25.997Z,6.39
2023-04-06T08:25:26.023Z,6.56
2023-04-06T08:27:26.032Z,7.28
2023-04-06T08:28:25.996Z,7
2023-04-06T08:29:26.006Z,7.72
2023-04-06T08:30:26.013Z,7.28
2023-04-06T08:31:26.036Z,7
2023-04-06T08:32:26.040Z,6.11
2023-04-06T08:33:26.013Z,6
2023-04-06T08:35:26.036Z,6
2023-04-06T08:37:26.002Z,6.28
2023-04-06T08:38:26.034Z,6.56
2023-04-06T08:40:26.011Z,7.61
2023-04-06T08:42:26.002Z,7
2023-04-06T08:43:26.003Z,7.17
2023-04-06T08:44:26.008Z,7.72
2023-04-06T08:46:26.031Z,7.61
2023-04-06T08:47:26.028Z,7.17
2023-04-06T08:48:26.011Z,6.83
2023-04-06T08:49:26.012Z,6.83
2023-04-06T08:50:26.014Z,6.28
2023-04-06T08:51:26.004Z,5.83
2023-04-06T08:52:26.016Z,6.11
2023-04-06T08:53:26.018Z,6.39
2023-04-06T08:54:26.032Z,6.83
2023-04-06T08:56:26.026Z,6.83
2023-04-06T08:57:26.007Z,7.61
2023-04-06T08:58:35.492Z,7.89
2023-04-06T08:59:26.019Z,7.44
2023-04-06T09:00:26.009Z,6.83
2023-04-06T09:01:26.098Z,6.39
2023-04-06T09:02:26.093Z,6.83
2023-04-06T09:03:26.175Z,7.28
2023-04-06T09:04:26.134Z,7.44
2023-04-06T09:05:26.022Z,7.61
2023-04-06T09:06:26.018Z,7.28
2023-04-06T09:07:26.026Z,8
2023-04-06T09:08:26.019Z,8.17
2023-04-06T09:09:26.015Z,7.72
2023-04-06T09:10:26.056Z,7.72
2023-04-06T09:12:26.031Z,7.28
2023-04-06T09:13:26.037Z,6.78
2023-04-06T09:14:26.022Z,6.22
2023-04-06T09:15:26.019Z,6.39
2023-04-06T09:16:26.057Z,6.39
2023-04-06T09:17:26.032Z,6.67
2023-04-06T09:18:26.032Z,7.11
2023-04-06T09:20:26.025Z,6.94
2023-04-06T09:21:26.199Z,6.5
2023-04-06T09:22:26.028Z,6.67
2023-04-06T09:23:26.080Z,6.67
2023-04-06T09:25:26.033Z,5.94
2023-04-06T09:26:26.062Z,6.39
2023-04-06T09:27:26.030Z,6.5
2023-04-06T09:28:26.053Z,6.22
2023-04-06T09:30:26.046Z,6.94
2023-04-06T09:31:26.082Z,6.5
2023-04-06T09:32:26.057Z,6.06
2023-04-06T09:33:26.044Z,6.06
2023-04-06T09:34:26.037Z,5.78
2023-04-06T09:35:26.054Z,6.22
2023-04-06T09:36:26.045Z,5.94
2023-04-06T09:37:26.049Z,6.39
2023-04-06T09:39:26.044Z,6.22
2023-04-06T09:40:26.058Z,6.22
2023-04-06T09:42:26.067Z,5.67
2023-04-06T09:44:26.057Z,5.78
2023-04-06T09:45:26.055Z,5.78
2023-04-06T09:47:28.631Z,6.06
2023-04-06T09:49:26.074Z,6.5
2023-04-06T09:50:26.050Z,6.67
2023-04-06T09:51:26.038Z,6.78
2023-04-06T09:52:26.055Z,7.5
2023-04-06T09:53:26.051Z,6.06
2023-04-06T09:55:26.052Z,6.22
2023-04-06T09:56:26.052Z,6.67
2023-04-06T09:57:26.136Z,6.94
2023-04-06T09:58:26.116Z,7.5
2023-04-06T09:59:26.078Z,7.11
2023-04-06T10:00:26.088Z,7.67
2023-04-06T10:02:26.091Z,7.94
2023-04-06T10:04:26.064Z,7.78
2023-04-06T10:06:26.060Z,8.39
2023-04-06T10:07:26.048Z,7.94
2023-04-06T10:08:26.055Z,7.5
2023-04-06T10:09:26.042Z,6.39
2023-04-06T10:10:26.054Z,6.67
2023-04-06T10:12:26.057Z,6.67
2023-04-06T10:13:26.052Z,6.67
2023-04-06T10:14:26.087Z,6.22
2023-04-06T10:16:26.187Z,6.94
2023-04-06T10:17:26.065Z,7.11
2023-04-06T10:18:26.059Z,7.11
2023-04-06T10:19:26.058Z,7.11
2023-04-06T10:20:26.075Z,7.5
2023-04-06T10:21:26.065Z,7.22
2023-04-06T10:22:26.061Z,7.22
2023-04-06T10:23:26.081Z,6.67
2023-04-06T10:24:26.061Z,6.5
2023-04-06T10:25:26.071Z,5.94
2023-04-06T10:26:26.069Z,6.06
2023-04-06T10:27:26.775Z,6.39
2023-04-06T10:28:26.071Z,6.67
2023-04-06T10:30:26.139Z,6.39
2023-04-06T10:32:26.090Z,6.5
2023-04-06T10:34:26.081Z,6.22
2023-04-06T10:36:26.113Z,6.22
2023-04-06T10:38:26.076Z,6.94
2023-04-06T10:39:26.063Z,6.94
2023-04-06T10:40:26.072Z,6.5
2023-04-06T10:41:26.092Z,6.67
2023-04-06T10:42:26.091Z,6.39
2023-04-06T10:43:26.112Z,6.67
2023-04-06T10:44:26.079Z,6.78
2023-04-06T10:45:26.127Z,6.67
2023-04-06T10:46:26.178Z,6.78
2023-04-06T10:48:26.082Z,6.5
2023-04-06T10:49:27.298Z,6.22
2023-04-06T10:50:26.067Z,6.67
2023-04-06T10:51:26.076Z,6.39
2023-04-06T10:52:26.080Z,6.39
2023-04-06T10:53:26.095Z,6.67
2023-04-06T10:54:26.104Z,6.39
2023-04-06T10:56:26.087Z,6.67
2023-04-06T10:57:26.095Z,6.67
2023-04-06T10:58:26.113Z,6.67
2023-04-06T10:59:26.201Z,6.5
2023-04-06T11:00:30.957Z,6.67
2023-04-06T11:01:26.110Z,6.67
2023-04-06T11:02:26.209Z,6.78
2023-04-06T11:04:26.159Z,6.5
2023-04-06T11:06:26.101Z,6.39
2023-04-06T11:08:26.107Z,6.22
2023-04-06T11:10:26.117Z,6.67
2023-04-06T11:11:26.089Z,6.67
2023-04-06T11:12:26.119Z,6.67
2023-04-06T11:14:26.095Z,6.22
2023-04-06T11:16:26.104Z,6.22
2023-04-06T11:18:26.125Z,6.39
2023-04-06T11:19:26.090Z,6.22
2023-04-06T11:20:26.101Z,6.5
2023-04-06T11:21:26.092Z,6.5
2023-04-06T11:22:26.099Z,6.22
2023-04-06T11:23:26.118Z,6.39
2023-04-06T11:24:26.146Z,6.67
2023-04-06T11:26:26.102Z,6.78
2023-04-06T11:27:26.113Z,6.39
2023-04-06T11:29:26.125Z,7.11
2023-04-06T11:31:26.193Z,7.5
2023-04-06T11:32:26.116Z,8.39
2023-04-06T11:33:26.111Z,7.94
2023-04-06T11:34:26.139Z,7.5
2023-04-06T11:36:26.190Z,7.67
2023-04-06T11:38:26.128Z,8.39
2023-04-06T11:40:26.141Z,8.11
2023-04-06T11:41:26.126Z,6.94
2023-04-06T11:43:26.131Z,7.94
2023-04-06T11:44:26.122Z,7.94
2023-04-06T11:45:26.124Z,7.78
2023-04-06T11:46:26.140Z,7.78
2023-04-06T11:47:26.129Z,7.11
2023-04-06T11:48:26.416Z,7.11
2023-04-06T11:49:26.124Z,6.94
2023-04-06T11:50:26.148Z,7.5
2023-04-06T11:52:26.167Z,6.94
2023-04-06T11:54:29.024Z,7.39
2023-04-06T11:56:26.152Z,6.94
2023-04-06T11:58:26.144Z,7.5
2023-04-06T11:59:26.143Z,7.78
2023-04-06T12:01:26.131Z,7.22
2023-04-06T12:02:26.175Z,7.11
2023-04-06T12:03:26.225Z,7.5
2023-04-06T12:04:26.185Z,7.11
2023-04-06T12:05:26.160Z,6.94
2023-04-06T12:06:26.174Z,7.5
2023-04-06T12:08:26.159Z,7.78
2023-04-06T12:09:26.194Z,7.78
2023-04-06T12:11:26.156Z,7.5
2023-04-06T12:12:26.146Z,7.94
2023-04-06T12:13:26.138Z,8.28
2023-04-06T12:14:26.168Z,8.39
2023-04-06T12:15:26.158Z,8.78
2023-04-06T12:17:26.182Z,8.28
2023-04-06T12:18:26.155Z,8.78
2023-04-06T12:20:27.354Z,8.94
2023-04-06T12:21:26.167Z,8.78
2023-04-06T12:22:26.190Z,9.94
2023-04-06T12:23:26.154Z,9.39
2023-04-06T12:24:26.158Z,8.28
2023-04-06T12:25:26.158Z,7.22
2023-04-06T12:26:26.158Z,7.11
2023-04-06T12:28:26.163Z,7.5
2023-04-06T12:31:26.194Z,8.39
2023-04-06T12:33:26.256Z,8.39
2023-04-06T12:35:26.168Z,7.67
2023-04-06T12:36:26.171Z,7.22
2023-04-06T12:37:26.164Z,6.94
2023-04-06T12:38:26.189Z,7.11
2023-04-06T12:40:26.166Z,7.22
2023-04-06T12:41:26.176Z,6.94
2023-04-06T12:43:26.165Z,7.22
2023-04-06T12:44:27.017Z,7.94
2023-04-06T12:45:26.180Z,7.94
2023-04-06T12:46:26.217Z,8.5
2023-04-06T12:47:26.197Z,8.94
2023-04-06T12:48:26.173Z,9.06
2023-04-06T12:49:26.175Z,9.22
2023-04-06T12:50:26.205Z,9.39
2023-04-06T12:51:26.166Z,8.78
2023-04-06T12:52:26.188Z,9.67
2023-04-06T12:53:26.185Z,9.67
2023-04-06T12:54:26.195Z,9.5
2023-04-06T12:56:26.214Z,8.94
2023-04-06T12:57:26.177Z,9.06
2023-04-06T12:58:26.188Z,9.67
2023-04-06T12:59:26.285Z,9.5
2023-04-06T13:00:26.299Z,10.22
2023-04-06T13:01:26.275Z,9.67
2023-04-06T13:03:26.248Z,11
2023-04-06T13:04:26.177Z,8.39
2023-04-06T13:05:27.677Z,8.39
2023-04-06T13:06:26.196Z,9.06
2023-04-06T13:07:26.183Z,9.78
2023-04-06T13:08:26.249Z,9.22
2023-04-06T13:09:26.200Z,9.67
2023-04-06T13:10:26.225Z,8.61
2023-04-06T13:12:26.208Z,8.78
2023-04-06T13:13:26.216Z,9
2023-04-06T13:14:26.198Z,8.83
2023-04-06T13:15:26.209Z,8.83
2023-04-06T13:16:26.219Z,9.72
2023-04-06T13:17:26.252Z,10.11
2023-04-06T13:19:26.216Z,9.78
2023-04-06T13:20:26.219Z,10.39
2023-04-06T13:21:26.211Z,10
2023-04-06T13:22:26.226Z,10.33
2023-04-06T13:23:26.222Z,10.33
2023-04-06T13:25:26.213Z,9.28
2023-04-06T13:26:26.279Z,10
2023-04-06T13:28:26.224Z,9.17
2023-04-06T13:29:26.227Z,9.72
2023-04-06T13:30:26.242Z,9
2023-04-06T13:31:26.227Z,9
2023-04-06T13:32:26.238Z,9.28
2023-04-06T13:33:26.245Z,9.28
2023-04-06T13:35:26.228Z,8.83
2023-04-06T13:36:26.326Z,9.17
2023-04-06T13:37:26.231Z,8.44
2023-04-06T13:39:26.244Z,9.17
2023-04-06T13:40:26.229Z,9
2023-04-06T13:41:26.225Z,9.44
2023-04-06T13:42:26.298Z,9.89
2023-04-06T13:44:26.254Z,9.56
2023-04-06T13:45:26.260Z,9.89
2023-04-06T13:46:26.274Z,9
2023-04-06T13:48:26.251Z,9.56
2023-04-06T13:50:26.244Z,9
2023-04-06T13:51:26.271Z,9
2023-04-06T13:53:26.256Z,9.44
2023-04-06T13:54:26.257Z,9.72
2023-04-06T13:55:26.249Z,8.83
2023-04-06T13:57:26.245Z,9
2023-04-06T13:58:26.287Z,8.83
2023-04-06T14:00:26.299Z,8.67
2023-04-06T14:01:26.270Z,8.17
2023-04-06T14:02:26.410Z,7.89
2023-04-06T14:03:26.349Z,8.17
2023-04-06T14:05:26.258Z,8.83
2023-04-06T14:07:26.261Z,8.44
2023-04-06T14:08:26.248Z,8.33
2023-04-06T14:09:26.241Z,8.61
2023-04-06T14:10:26.249Z,9
2023-04-06T14:12:26.266Z,8.44
2023-04-06T14:13:26.251Z,8.83
2023-04-06T14:14:26.358Z,9.17
2023-04-06T14:16:26.271Z,9
2023-04-06T14:17:26.259Z,9.44
2023-04-06T14:18:26.246Z,10.33
2023-04-06T14:19:26.256Z,10.44
2023-04-06T14:20:26.249Z,9.17
2023-04-06T14:21:26.269Z,9.17
2023-04-06T14:23:26.261Z,9.44
2023-04-06T14:24:26.269Z,9
2023-04-06T14:25:26.283Z,9.17
2023-04-06T14:26:26.252Z,9.72
2023-04-06T14:27:26.268Z,10
2023-04-06T14:28:26.267Z,9.56
2023-04-06T14:30:26.326Z,8.67
2023-04-06T14:32:26.301Z,8.67
2023-04-06T14:33:26.271Z,9.44
2023-04-06T14:34:26.268Z,9.28
2023-04-06T14:36:26.282Z,9
2023-04-06T14:37:26.279Z,9
2023-04-06T14:38:26.257Z,8.67
2023-04-06T14:39:26.270Z,9
2023-04-06T14:40:26.280Z,9.17
2023-04-06T14:42:26.264Z,9
2023-04-06T14:43:26.265Z,9
2023-04-06T14:44:26.297Z,8.83
2023-04-06T14:46:26.312Z,8.44
2023-04-06T14:48:26.275Z,8.44
2023-04-06T14:49:26.277Z,8.61
2023-04-06T14:50:26.276Z,8.33
2023-04-06T14:51:26.290Z,8.61
2023-04-06T14:53:26.292Z,8.61
2023-04-06T14:54:26.287Z,8.33
2023-04-06T14:55:26.282Z,8.33
2023-04-06T14:56:26.261Z,8.67
2023-04-06T14:57:26.276Z,8.83
2023-04-06T14:58:26.293Z,10
2023-04-06T14:59:26.282Z,10.44
2023-04-06T15:00:26.276Z,11.5
2023-04-06T15:01:26.358Z,12.94
2023-04-06T15:02:26.529Z,11.89
2023-04-06T15:04:26.420Z,11.5
2023-04-06T15:06:26.295Z,11.17
2023-04-06T15:08:26.332Z,11.78
2023-04-06T15:09:26.287Z,12
2023-04-06T15:11:26.305Z,12
2023-04-06T15:12:26.274Z,11.61
2023-04-06T15:14:26.300Z,10.44
2023-04-06T15:15:26.298Z,12
2023-04-06T15:16:26.341Z,12.33
2023-04-06T15:17:26.322Z,11.17
2023-04-06T15:18:26.316Z,10.72
2023-04-06T15:20:26.299Z,10
2023-04-06T15:21:26.288Z,9.17
2023-04-06T15:22:26.292Z,9
2023-04-06T15:23:26.308Z,9
2023-04-06T15:25:26.297Z,9.17
2023-04-06T15:26:26.309Z,9.44
2023-04-06T15:27:26.310Z,9
2023-04-06T15:28:26.300Z,9
2023-04-06T15:29:26.309Z,8.61
2023-04-06T15:30:26.329Z,9
2023-04-06T15:31:36.425Z,8.61
2023-04-06T15:32:26.337Z,8.33
2023-04-06T15:33:26.320Z,8.33
2023-04-06T15:34:26.347Z,8.67
2023-04-06T15:36:26.333Z,9.72
2023-04-06T15:38:26.323Z,9.28
2023-04-06T15:39:26.326Z,9
2023-04-06T15:40:26.344Z,8.61
2023-04-06T15:41:26.339Z,8.17
2023-04-06T15:42:26.318Z,8.44
2023-04-06T15:43:26.331Z,8.61
2023-04-06T15:44:26.335Z,8.61
2023-04-06T15:45:26.324Z,8.67
2023-04-06T15:46:26.336Z,8.61
2023-04-06T15:47:26.356Z,8.44
2023-04-06T15:49:26.342Z,9
2023-04-06T15:50:26.366Z,9
2023-04-06T15:52:26.343Z,10.33
2023-04-06T15:54:26.346Z,9.44
2023-04-06T15:55:26.351Z,9
2023-04-06T15:56:26.371Z,8.83
2023-04-06T15:58:26.377Z,8.61
2023-04-06T16:00:26.363Z,8.61
2023-04-06T16:01:26.401Z,8.44
2023-04-06T16:02:26.525Z,8.44
2023-04-06T16:03:26.563Z,8.61
2023-04-06T16:04:26.433Z,8.83
2023-04-06T16:05:28.364Z,9
2023-04-06T16:06:26.383Z,9.44
2023-04-06T16:08:26.377Z,8.83
2023-04-06T16:09:26.377Z,8.67
2023-04-06T16:11:26.379Z,8.61
2023-04-06T16:12:27.805Z,8.17
2023-04-06T16:14:26.377Z,9.72
2023-04-06T16:16:26.406Z,12
2023-04-06T16:17:26.418Z,12
2023-04-06T16:18:26.380Z,12
2023-04-06T16:19:26.378Z,11.61
2023-04-06T16:20:26.399Z,11.06
2023-04-06T16:22:26.506Z,11.61
2023-04-06T16:23:26.378Z,11.61
2023-04-06T16:24:26.390Z,11.61
2023-04-06T16:25:26.401Z,12
2023-04-06T16:26:26.391Z,11.61
2023-04-06T16:27:26.386Z,11.33
2023-04-06T16:28:26.401Z,10.33
2023-04-06T16:30:26.390Z,11.17
2023-04-06T16:31:26.441Z,10.72
2023-04-06T16:32:26.445Z,11.17
2023-04-06T16:33:26.396Z,11.5
2023-04-06T16:34:26.400Z,10.61
2023-04-06T16:35:26.408Z,10
2023-04-06T16:36:26.411Z,9.17